Time;durP1;ratioP1;P1;durP2;ratioP2;P2;SDS_P1;SDS_P2;PMS_P1;PMS_P2;Temp;Humidity;BMP_temperature;BMP_pressure;BME280_temperature;BME280_humidity;BME280_pressure;Samples;Min_cycle;Max_cycle;Signal;HPM_P1;HPM_P2
2022/09/07 00:00:43;;;;;;;8.23;7.43;;;17.50;91.90;;;18.46;71.56;97729.63;5054712;28;20460;-78
2022/09/07 00:03:11;;;;;;;8.57;7.77;;;17.60;92.20;;;18.78;71.33;97761.34;5069070;28;20455;-78
2022/09/07 00:05:42;;;;;;;8.90;8.10;;;17.60;92.00;;;18.73;71.33;97755.84;5052149;28;20454;-77
2022/09/07 00:08:12;;;;;;;8.50;7.67;;;17.60;91.70;;;18.53;71.84;97749.31;5067632;28;20459;-77
2022/09/07 00:10:40;;;;;;;8.20;7.40;;;17.60;91.70;;;18.22;72.17;97724.69;5050063;28;20456;-76
2022/09/07 00:13:09;;;;;;;8.73;8.00;;;17.50;91.60;;;18.25;72.77;97740.56;5059912;28;20465;-77
2022/09/07 00:15:40;;;;;;;8.73;7.87;;;17.50;91.90;;;18.50;71.98;97755.34;5056329;28;20485;-78
2022/09/07 00:18:07;;;;;;;8.50;7.63;;;17.40;92.10;;;18.54;71.85;97753.69;5055720;28;21056;-78
2022/09/07 00:20:35;;;;;;;7.97;7.27;;;17.50;91.90;;;18.40;72.95;97750.69;5053445;28;20455;-78
2022/09/07 00:23:02;;;;;;;8.87;7.97;;;17.40;92.40;;;18.45;72.69;97761.63;5041221;28;20468;-78
2022/09/07 00:25:32;;;;;;;8.90;7.77;;;17.40;92.50;;;18.48;72.51;97757.53;5047786;28;20453;-78
2022/09/07 00:28:00;;;;;;;8.17;7.43;;;17.40;92.30;;;18.35;72.99;97762.44;5047629;28;20499;-77
2022/09/07 00:30:27;;;;;;;8.57;7.83;;;17.40;92.50;;;18.40;72.57;97762.44;5045756;28;20833;-78
2022/09/07 00:32:57;;;;;;;7.90;7.30;;;17.30;92.70;;;18.42;72.67;97759.44;5048498;28;20456;-79
2022/09/07 00:35:24;;;;;;;8.97;7.90;;;17.30;93.30;;;18.40;72.51;97756.16;5044123;28;20472;-78
2022/09/07 00:37:52;;;;;;;8.10;7.30;;;17.30;92.70;;;18.33;72.59;97753.69;5039823;28;20511;-77
2022/09/07 00:40:19;;;;;;;9.03;7.80;;;17.20;93.00;;;18.31;73.02;97750.41;5037300;28;20466;-77
2022/09/07 00:42:48;;;;;;;9.87;7.87;;;17.30;93.20;;;18.21;73.16;97764.06;5068947;28;20972;-79
2022/09/07 00:45:18;;;;;;;9.10;8.20;;;17.30;92.60;;;18.00;73.66;97755.81;5045262;28;20456;-78
2022/09/07 00:47:53;;;;;;;9.30;8.50;;;17.20;92.80;;;18.15;73.36;97765.16;5045234;28;20462;-79
2022/09/07 00:50:26;;;;;;;8.97;8.07;;;17.20;92.80;;;18.14;73.37;97766.25;5051132;28;20450;-78
2022/09/07 00:53:00;;;;;;;9.37;8.63;;;17.10;93.00;;;17.98;73.97;97769.75;5040433;28;20465;-78
2022/09/07 00:55:27;;;;;;;9.13;8.23;;;17.10;92.90;;;18.02;73.68;97764.59;5043011;28;20458;-79
2022/09/07 00:57:57;;;;;;;10.23;8.80;;;17.00;93.10;;;17.92;73.97;97764.53;5050314;28;20486;-78
2022/09/07 01:00:25;;;;;;;8.67;7.97;;;17.00;93.50;;;17.53;74.51;97712.00;5068074;28;20477;-78
2022/09/07 01:02:55;;;;;;;9.53;8.70;;;17.00;93.70;;;17.93;74.37;97771.63;5056117;28;20481;-78
2022/09/07 01:05:31;;;;;;;11.03;9.93;;;17.00;93.60;;;17.70;74.82;97779.25;5044988;28;20468;-78
2022/09/07 01:07:59;;;;;;;11.10;8.70;;;16.90;93.90;;;17.69;75.37;97767.47;5067893;28;20458;-78
2022/09/07 01:10:30;;;;;;;13.47;8.83;;;16.90;94.00;;;17.72;74.87;97755.19;5040978;28;20464;-78
2022/09/07 01:13:01;;;;;;;9.70;8.90;;;16.90;93.90;;;17.40;74.88;97701.56;5044749;28;20464;-78
2022/09/07 01:15:40;;;;;;;8.93;8.03;;;16.90;94.00;;;17.72;74.79;97752.47;5031848;28;20448;-77
2022/09/07 01:18:18;;;;;;;10.07;8.60;;;17.00;93.60;;;17.60;74.85;97746.41;5034296;28;20492;-77
2022/09/07 01:21:19;;;;;;;9.23;8.43;;;16.90;93.30;;;17.80;75.01;97757.38;5036937;28;20471;-78
2022/09/07 01:24:33;;;;;;;8.83;8.03;;;16.80;93.80;;;17.80;74.72;97757.38;5034821;28;20478;-77
2022/09/07 01:27:28;;;;;;;8.63;7.83;;;16.80;94.00;;;17.58;75.24;97752.13;4995235;28;20459;-77
2022/09/07 01:30:04;;;;;;;10.13;9.10;;;16.80;94.30;;;17.46;76.04;97768.75;5048326;28;20482;-76
2022/09/07 01:32:50;;;;;;;9.70;8.80;;;16.70;94.50;;;17.35;76.29;97761.59;5047370;28;20834;-75
2022/09/07 01:35:25;;;;;;;8.87;8.03;;;16.60;94.60;;;17.15;77.06;97741.31;5034675;28;20468;-79
2022/09/07 01:38:03;;;;;;;9.40;8.70;;;16.50;95.20;;;17.07;76.43;97711.81;5036853;28;20484;-78
2022/09/07 01:40:40;;;;;;;10.63;9.57;;;16.50;95.20;;;17.34;76.89;97759.97;5045637;28;20464;-78
2022/09/07 01:43:16;;;;;;;10.80;9.73;;;16.50;95.30;;;17.24;77.04;97745.19;5069450;28;20457;-79
2022/09/07 01:45:45;;;;;;;9.43;8.37;;;16.50;95.70;;;17.27;76.97;97746.53;5066806;28;20488;-78
2022/09/07 01:48:17;;;;;;;9.50;8.57;;;16.50;95.70;;;17.35;76.88;97764.31;5051648;28;20510;-79
2022/09/07 01:50:51;;;;;;;10.83;8.87;;;16.50;95.80;;;17.10;77.09;97716.72;5041007;28;20464;-78
2022/09/07 01:53:24;;;;;;;10.00;9.30;;;16.50;95.90;;;17.28;77.59;97762.66;5048990;28;20462;-78
2022/09/07 01:55:57;;;;;;;9.50;8.70;;;16.40;96.10;;;17.16;77.81;97745.69;5038553;28;20469;-78
2022/09/07 01:58:32;;;;;;;9.60;8.53;;;16.50;96.20;;;17.22;77.17;97733.72;5040657;28;20479;-79
2022/09/07 02:01:06;;;;;;;10.40;9.40;;;16.50;96.10;;;17.28;77.23;97735.38;5040452;28;20466;-80
2022/09/07 02:03:41;;;;;;;9.43;8.60;;;16.40;96.00;;;17.31;77.11;97738.66;5044663;28;20467;-79
2022/09/07 02:06:15;;;;;;;10.17;9.20;;;16.40;96.30;;;16.95;77.13;97696.44;5046598;28;20961;-79
2022/09/07 02:08:47;;;;;;;9.43;8.57;;;16.40;95.80;;;17.26;77.52;97737.56;5044371;28;20583;-79
2022/09/07 02:11:20;;;;;;;10.33;9.30;;;16.40;96.30;;;17.36;77.43;97742.22;5046364;28;20465;-78
2022/09/07 02:13:55;;;;;;;9.57;8.77;;;16.40;96.50;;;17.28;77.26;97729.91;5049323;28;20449;-79
2022/09/07 02:16:28;;;;;;;10.20;9.27;;;16.40;96.30;;;17.01;77.03;97691.03;5049608;28;20458;-79
2022/09/07 02:19:01;;;;;;;9.17;8.40;;;16.40;96.20;;;17.42;77.31;97743.06;5049466;28;20875;-79
2022/09/07 02:21:35;;;;;;;9.17;8.40;;;16.50;96.80;;;17.54;76.49;97753.75;5050746;28;21190;-77
2022/09/07 02:24:07;;;;;;;9.17;8.43;;;16.60;95.40;;;17.65;75.75;97757.34;5040673;28;20467;-79
2022/09/07 02:26:39;;;;;;;10.20;9.40;;;16.60;95.30;;;17.56;75.89;97754.31;5046777;28;20465;-77
2022/09/07 02:29:09;;;;;;;10.23;9.33;;;16.60;95.00;;;17.42;76.24;97743.88;5079447;28;20502;-78
2022/09/07 02:31:36;;;;;;;9.70;8.87;;;16.70;94.80;;;17.53;75.74;97743.94;5038571;28;20558;-78
2022/09/07 02:34:04;;;;;;;9.30;8.20;;;16.70;94.60;;;17.50;75.93;97758.94;5038214;28;20458;-77
2022/09/07 02:36:38;;;;;;;10.20;9.20;;;16.60;94.80;;;17.50;75.54;97753.47;5044536;28;20463;-79
2022/09/07 02:39:05;;;;;;;8.90;8.10;;;16.50;95.00;;;17.34;76.09;97744.41;5039991;28;20451;-79
2022/09/07 02:41:35;;;;;;;9.33;8.43;;;16.50;95.50;;;17.19;77.21;97753.34;5047375;28;20461;-77
2022/09/07 02:44:08;;;;;;;10.20;9.40;;;16.40;95.50;;;17.15;77.76;97760.41;5054474;28;20461;-77
2022/09/07 02:47:00;;;;;;;9.93;9.13;;;16.30;95.90;;;17.05;77.03;97731.16;5043269;28;20482;-79
2022/09/07 02:49:59;;;;;;;11.20;10.07;;;16.30;96.30;;;17.18;77.15;97765.34;5045474;28;20470;-78
2022/09/07 02:52:39;;;;;;;10.80;9.70;;;16.30;96.10;;;17.34;76.92;97770.88;5043141;28;20467;-78
2022/09/07 02:55:16;;;;;;;10.43;9.43;;;16.30;96.10;;;17.38;76.65;97769.28;5044124;28;20479;-78
2022/09/07 02:57:51;;;;;;;11.37;10.30;;;16.30;96.30;;;17.15;77.50;97771.34;5052069;28;20474;-78
2022/09/07 03:00:24;;;;;;;10.10;9.10;;;16.30;96.40;;;17.16;77.64;97762.06;5042276;28;21222;-76
2022/09/07 03:03:00;;;;;;;12.80;9.20;;;16.30;96.10;;;17.01;78.24;97762.81;5039928;28;20458;-79
2022/09/07 03:05:43;;;;;;;11.00;10.00;;;16.30;96.40;;;16.97;78.46;97761.63;5036443;28;20462;-78
2022/09/07 03:08:15;;;;;;;10.70;9.80;;;16.20;96.40;;;16.79;78.22;97730.19;5034045;28;20513;-78
2022/09/07 03:10:43;;;;;;;10.80;9.43;;;16.20;96.50;;;17.01;78.24;97751.91;5037907;28;20561;-77
2022/09/07 03:13:21;;;;;;;17.00;10.00;;;16.20;96.90;;;16.89;79.07;97759.41;5046666;28;20454;-77
2022/09/07 03:15:50;;;;;;;11.20;10.20;;;16.10;97.10;;;17.03;78.53;97754.34;5049160;28;20681;-77
2022/09/07 03:18:18;;;;;;;10.17;9.17;;;16.20;97.20;;;17.05;78.31;97746.69;5041300;28;20477;-77
2022/09/07 03:20:45;;;;;;;11.00;10.00;;;16.10;97.40;;;17.03;78.34;97757.06;5072112;28;20460;-79
2022/09/07 03:23:13;;;;;;;10.23;9.23;;;16.10;97.70;;;17.08;78.33;97749.72;5040533;28;20838;-78
2022/09/07 03:25:40;;;;;;;10.10;9.10;;;16.10;97.80;;;17.08;78.47;97754.38;5039038;28;20451;-77
2022/09/07 03:28:09;;;;;;;10.60;9.57;;;16.10;98.00;;;17.14;78.06;97750.59;5079444;28;20461;-77
2022/09/07 03:30:37;;;;;;;11.23;10.17;;;16.10;98.10;;;16.85;78.44;97724.47;5050204;28;20511;-78
2022/09/07 03:33:06;;;;;;;10.77;9.83;;;16.00;98.60;;;16.65;79.74;97722.44;5041164;28;20834;-78
2022/09/07 03:35:34;;;;;;;11.50;9.97;;;16.00;98.50;;;16.59;79.87;97723.47;5046354;28;20522;-78
2022/09/07 03:38:03;;;;;;;11.70;10.60;;;15.90;99.30;;;17.03;79.01;97754.34;5046319;28;20467;-76
2022/09/07 03:40:30;;;;;;;14.13;9.90;;;15.90;99.90;;;16.85;79.48;97753.66;5050437;28;20456;-77
2022/09/07 03:42:58;;;;;;;11.23;10.20;;;15.90;99.60;;;17.01;79.18;97761.97;5051884;28;20466;-78
2022/09/07 03:45:25;;;;;;;10.53;9.43;;;15.90;99.30;;;16.90;79.19;97761.88;5053510;28;21371;-77
2022/09/07 03:47:52;;;;;;;10.70;9.70;;;15.90;99.90;;;16.83;80.13;97767.59;5060087;28;20453;-77
2022/09/07 03:50:21;;;;;;;11.80;10.73;;;15.90;99.90;;;16.94;79.74;97767.63;5039096;28;20462;-77
2022/09/07 03:52:48;;;;;;;12.53;9.60;;;16.00;99.00;;;17.08;79.20;97762.56;5033998;28;20449;-79
2022/09/07 03:55:16;;;;;;;10.93;9.93;;;16.10;99.50;;;16.91;79.87;97755.34;5044282;28;20479;-77
2022/09/07 03:57:43;;;;;;;11.17;10.07;;;16.10;99.00;;;17.01;79.43;97751.06;5047918;28;20960;-78
2022/09/07 04:00:13;;;;;;;10.80;9.90;;;16.10;98.90;;;16.55;79.30;97695.94;5055936;28;20523;-77
2022/09/07 04:02:40;;;;;;;11.97;10.80;;;16.10;98.80;;;16.77;80.22;97732.34;5046627;28;20465;-77
2022/09/07 04:05:08;;;;;;;11.47;10.40;;;16.00;98.70;;;16.88;79.94;97736.75;5045891;28;20471;-79
2022/09/07 04:07:37;;;;;;;11.77;10.20;;;16.00;99.00;;;16.89;79.89;97724.75;5041972;28;20455;-78
2022/09/07 04:10:05;;;;;;;11.20;10.20;;;16.00;99.10;;;16.91;79.83;97746.34;5030508;28;21172;-78
2022/09/07 04:12:32;;;;;;;12.07;10.87;;;16.00;99.00;;;16.92;79.87;97735.16;5034423;28;20986;-76
2022/09/07 04:15:00;;;;;;;11.83;10.50;;;16.10;99.80;;;16.82;80.18;97729.63;5040752;28;20888;-77
2022/09/07 04:17:27;;;;;;;12.40;11.30;;;16.00;99.50;;;16.69;80.95;97729.00;5075103;28;20478;-79
2022/09/07 04:19:55;;;;;;;12.10;11.00;;;16.00;99.50;;;16.79;80.71;97736.44;5061402;28;20455;-81
2022/09/07 04:22:22;;;;;;;11.00;10.10;;;16.00;99.90;;;17.01;79.87;97735.53;5049375;28;20512;-78
2022/09/07 04:24:51;;;;;;;11.93;9.73;;;16.10;99.90;;;16.59;79.62;97679.84;5044139;28;20455;-77
2022/09/07 04:27:18;;;;;;;11.90;10.80;;;16.20;99.50;;;17.12;79.58;97744.56;5040538;28;20538;-79
2022/09/07 04:29:47;;;;;;;11.80;10.40;;;16.30;98.90;;;17.25;79.30;97748.72;5050396;28;20451;-79
2022/09/07 04:32:15;;;;;;;12.37;9.90;;;16.40;98.60;;;17.30;78.82;97748.78;5056165;28;20460;-78
2022/09/07 04:34:42;;;;;;;11.53;10.33;;;16.50;97.50;;;17.50;78.26;97750.75;5066668;28;20463;-79
2022/09/07 04:37:11;;;;;;;11.40;10.30;;;16.50;97.30;;;17.56;77.77;97763.34;5042553;28;21124;-81
2022/09/07 04:39:38;;;;;;;12.03;10.23;;;16.60;96.70;;;17.62;77.54;97760.63;5045541;28;21184;-79
2022/09/07 04:42:07;;;;;;;11.33;9.73;;;16.70;96.60;;;17.49;77.20;97751.81;5051860;28;20459;-81
2022/09/07 04:44:34;;;;;;;9.67;8.87;;;16.70;96.10;;;17.68;77.00;97765.03;5054303;28;21162;-79
2022/09/07 04:47:02;;;;;;;11.00;10.00;;;16.70;95.60;;;17.74;76.72;97763.94;5049594;28;20454;-73
2022/09/07 04:49:29;;;;;;;11.27;10.13;;;16.70;95.90;;;17.73;76.83;97762.31;5038925;28;20486;-82
2022/09/07 04:51:56;;;;;;;10.93;9.83;;;16.70;96.20;;;17.77;76.66;97766.13;5047288;28;20478;-77
2022/09/07 04:54:25;;;;;;;12.10;9.60;;;16.70;96.30;;;17.66;76.44;97751.63;5044643;28;20472;-84
2022/09/07 04:56:53;;;;;;;10.33;9.43;;;16.80;95.80;;;17.97;75.83;97776.31;5049576;28;21018;-75
2022/09/07 04:59:21;;;;;;;11.30;10.13;;;16.90;95.80;;;17.79;76.34;97754.94;5052048;28;20494;-77
2022/09/07 05:01:48;;;;;;;10.70;9.80;;;16.90;95.00;;;18.04;75.22;97767.88;5076224;28;20458;-77
2022/09/07 05:04:15;;;;;;;11.00;9.60;;;17.20;94.00;;;18.29;74.61;97774.47;5032825;28;20458;-77
2022/09/07 05:06:43;;;;;;;13.77;9.83;;;17.40;93.40;;;18.46;73.79;97773.41;5036867;28;20683;-77
2022/09/07 05:09:10;;;;;;;9.93;9.00;;;17.50;93.00;;;18.27;74.36;97782.09;5028837;28;20460;-76
2022/09/07 05:11:38;;;;;;;10.07;9.17;;;17.50;92.80;;;18.26;74.64;97781.31;5038401;28;20471;-75
2022/09/07 05:14:06;;;;;;;10.90;9.77;;;17.40;93.20;;;18.41;73.69;97783.22;5043045;28;20526;-79
2022/09/07 05:16:35;;;;;;;10.70;9.70;;;17.40;93.00;;;18.44;73.35;97786.53;5039721;28;20468;-78
2022/09/07 05:19:05;;;;;;;10.90;9.80;;;17.40;92.70;;;18.45;73.44;97799.09;5032821;28;20479;-78
2022/09/07 05:21:35;;;;;;;12.00;10.87;;;17.50;92.90;;;18.13;74.93;97792.75;5034931;28;20458;-72
2022/09/07 05:24:03;;;;;;;11.17;10.03;;;17.40;92.90;;;18.05;75.65;97783.19;5063333;28;20466;-76
2022/09/07 05:26:34;;;;;;;11.10;10.07;;;17.40;93.40;;;18.04;75.46;97789.75;5034557;28;20456;-77
2022/09/07 05:29:04;;;;;;;10.60;9.63;;;17.30;93.40;;;18.23;74.95;97786.50;5039781;28;20451;-75
2022/09/07 05:31:32;;;;;;;9.97;9.07;;;17.40;93.40;;;18.53;74.15;97795.81;5037536;28;20467;-79
2022/09/07 05:34:01;;;;;;;10.33;9.43;;;17.50;93.30;;;18.72;73.33;97789.78;5037251;28;20460;-80
2022/09/07 05:36:29;;;;;;;10.67;9.57;;;17.80;92.40;;;18.77;73.10;97778.84;5032190;28;20478;-80
2022/09/07 05:38:59;;;;;;;15.67;10.00;;;17.90;92.00;;;18.58;73.91;97771.22;5038474;28;20482;-77
2022/09/07 05:41:27;;;;;;;14.40;9.70;;;17.90;92.00;;;18.72;73.32;97770.63;5033340;28;21025;-79
2022/09/07 05:43:56;;;;;;;12.10;9.50;;;17.90;92.00;;;18.84;73.01;97782.13;5039215;28;20555;-76
2022/09/07 05:46:23;;;;;;;11.93;10.53;;;17.90;92.10;;;18.76;73.16;97785.44;5049427;28;20446;-79
2022/09/07 05:48:51;;;;;;;12.80;10.20;;;18.00;91.90;;;18.65;73.53;97782.69;5034737;28;20461;-78
2022/09/07 05:51:20;;;;;;;10.80;9.80;;;17.90;91.90;;;18.54;73.75;97775.56;5032481;28;20473;-79
2022/09/07 05:53:49;;;;;;;14.13;10.03;;;17.90;91.90;;;18.54;73.80;97775.56;5030393;28;20547;-78
2022/09/07 05:56:16;;;;;;;13.73;11.30;;;17.90;92.10;;;18.47;74.36;97772.31;5032205;28;20461;-78
2022/09/07 05:58:48;;;;;;;12.17;10.97;;;17.80;92.40;;;18.54;74.13;97781.03;5044587;28;21249;-79
2022/09/07 06:01:17;;;;;;;13.00;11.10;;;17.80;92.60;;;18.53;74.45;97779.41;5036756;28;20461;-80
2022/09/07 06:03:44;;;;;;;12.30;10.70;;;17.70;92.80;;;18.71;73.96;97775.31;5037697;28;20448;-80
2022/09/07 06:06:14;;;;;;;11.90;10.63;;;17.80;92.60;;;18.74;73.70;97777.47;5035743;28;20465;-80
2022/09/07 06:08:48;;;;;;;13.10;10.53;;;17.90;92.30;;;18.92;73.11;97781.56;5036282;28;20465;-79
2022/09/07 06:11:18;;;;;;;15.47;10.87;;;18.10;92.20;;;19.09;72.58;97783.22;5033191;28;20457;-77
2022/09/07 06:13:45;;;;;;;14.87;12.67;;;18.20;91.90;;;18.86;72.56;97735.34;5069827;28;20463;-78
2022/09/07 06:16:14;;;;;;;11.30;10.17;;;18.30;91.70;;;19.39;71.48;97778.75;5038382;28;20478;-79
2022/09/07 06:18:43;;;;;;;13.83;10.47;;;18.60;91.20;;;19.39;71.93;97781.50;5034669;28;20484;-80
2022/09/07 06:21:13;;;;;;;13.07;9.93;;;18.60;91.20;;;19.36;72.36;97779.31;5037611;28;20871;-81
2022/09/07 06:23:43;;;;;;;13.70;10.90;;;18.60;91.30;;;19.31;72.24;97760.16;5034143;28;20469;-78
2022/09/07 06:26:12;;;;;;;12.07;10.83;;;18.70;91.40;;;20.05;70.37;97773.28;5034890;28;20976;-79
2022/09/07 06:28:42;;;;;;;11.67;10.27;;;18.90;91.20;;;20.13;70.02;97774.59;5026840;28;20465;-77
2022/09/07 06:31:11;;;;;;;12.80;10.13;;;19.20;90.70;;;20.00;70.51;97771.38;5034466;28;21278;-80
2022/09/07 06:33:39;;;;;;;13.23;9.93;;;19.10;90.70;;;19.85;71.04;97765.94;5029479;28;21185;-78
2022/09/07 06:36:11;;;;;;;12.30;11.20;;;19.20;90.60;;;19.96;70.68;97770.31;5035449;28;20457;-81
2022/09/07 06:38:39;;;;;;;11.73;10.50;;;19.20;90.40;;;20.21;69.74;97787.69;5029248;28;20471;-78
2022/09/07 06:41:08;;;;;;;10.77;9.57;;;19.30;90.40;;;20.17;70.07;97775.66;5037551;28;20460;-80
2022/09/07 06:43:38;;;;;;;10.90;9.40;;;19.40;90.30;;;20.30;69.57;97775.03;5034315;28;20989;-76
2022/09/07 06:46:07;;;;;;;12.67;9.60;;;19.40;90.10;;;20.46;69.36;97780.41;5030131;28;20469;-76
2022/09/07 06:48:35;;;;;;;11.73;9.50;;;19.50;90.00;;;20.45;68.85;97771.31;5026498;28;20969;-80
2022/09/07 06:51:04;;;;;;;11.70;10.40;;;19.60;89.90;;;20.74;68.16;97783.47;5051977;28;20457;-80
2022/09/07 06:53:35;;;;;;;13.00;9.67;;;19.80;89.70;;;21.03;67.45;97782.69;5027592;28;20486;-80
2022/09/07 06:56:06;;;;;;;12.43;9.70;;;19.90;89.50;;;20.95;67.48;97773.94;5033033;28;20456;-82
2022/09/07 06:58:34;;;;;;;10.67;9.07;;;19.90;89.20;;;20.83;68.07;97781.75;5034712;28;20483;-79
2022/09/07 07:01:08;;;;;;;11.60;9.37;;;20.00;89.20;;;21.11;67.53;97776.53;5031740;28;20465;-82
2022/09/07 07:03:36;;;;;;;13.13;9.53;;;20.10;89.30;;;21.41;66.63;97791.03;5031833;28;20491;-76
2022/09/07 07:06:04;;;;;;;14.17;9.27;;;20.30;89.00;;;21.66;65.82;97783.66;5033209;28;20455;-80
2022/09/07 07:08:31;;;;;;;12.70;9.13;;;20.50;88.50;;;22.35;63.74;97776.91;5030764;28;22314;-79
2022/09/07 07:11:02;;;;;;;10.80;8.40;;;20.90;88.00;;;22.23;63.96;97780.13;5030476;28;20491;-79
2022/09/07 07:13:29;;;;;;;12.30;8.90;;;21.10;87.20;;;22.30;63.86;97777.81;5034237;28;21043;-73
2022/09/07 07:16:03;;;;;;;9.90;7.80;;;21.30;87.30;;;22.64;62.64;97771.25;5036783;28;20490;-80
2022/09/07 07:18:32;;;;;;;10.47;7.87;;;21.50;86.50;;;23.05;61.42;97758.72;5046273;28;20464;-74
2022/09/07 07:21:03;;;;;;;8.83;7.83;;;21.90;86.00;;;23.36;60.47;97762.81;5053439;28;20456;-72
2022/09/07 07:23:31;;;;;;;9.80;7.57;;;22.10;85.30;;;23.26;60.44;97747.31;5034905;28;20459;-74
2022/09/07 07:26:02;;;;;;;12.40;7.07;;;22.30;84.60;;;23.67;59.30;97753.91;5030057;28;20466;-82
2022/09/07 07:28:29;;;;;;;10.50;7.70;;;22.50;84.10;;;23.80;58.31;97766.03;5028155;28;20465;-81
2022/09/07 07:30:58;;;;;;;8.60;7.70;;;22.70;83.40;;;23.17;59.88;97765.63;5029435;28;20464;-81
2022/09/07 07:33:31;;;;;;;9.13;6.93;;;22.40;83.40;;;23.46;59.51;97768.16;5035764;28;20465;-79
2022/09/07 07:36:09;;;;;;;8.50;7.30;;;22.50;83.60;;;23.33;59.81;97777.22;5034053;28;20465;-81
2022/09/07 07:38:37;;;;;;;11.47;6.57;;;22.40;83.50;;;23.32;59.34;97773.63;5034568;28;20467;-79
2022/09/07 07:41:05;;;;;;;7.83;7.00;;;22.30;83.40;;;23.59;58.72;97776.72;5039767;28;20987;-77
2022/09/07 07:43:33;;;;;;;8.90;7.00;;;22.40;83.20;;;23.11;59.77;97770.41;5041488;28;20488;-75
2022/09/07 07:46:01;;;;;;;8.90;7.40;;;22.20;83.40;;;23.06;60.08;97776.88;5028742;28;20465;-83
2022/09/07 07:48:28;;;;;;;9.03;6.60;;;22.10;83.50;;;22.75;60.68;97793.09;5043385;28;20492;-79
2022/09/07 07:51:02;;;;;;;7.40;6.60;;;21.90;83.60;;;22.82;60.83;97799.03;5038717;28;20472;-78
2022/09/07 07:53:33;;;;;;;10.40;6.40;;;21.80;83.80;;;22.78;60.83;97798.00;5038028;28;20965;-81
2022/09/07 07:56:03;;;;;;;9.83;7.20;;;21.60;83.90;;;22.49;61.86;97801.78;5037834;28;20448;-82
2022/09/07 07:58:33;;;;;;;7.90;6.80;;;21.50;84.30;;;22.40;62.25;97798.84;5035895;28;20466;-82
2022/09/07 08:01:03;;;;;;;8.90;7.00;;;21.40;84.50;;;22.49;62.15;97799.84;5039431;28;20965;-78
2022/09/07 08:03:34;;;;;;;7.57;6.73;;;21.40;84.60;;;22.64;61.59;97806.22;5047538;28;20459;-82
2022/09/07 08:06:06;;;;;;;7.63;6.83;;;21.50;84.30;;;22.73;61.46;97800.84;5039956;28;20634;-83
2022/09/07 08:08:37;;;;;;;7.73;6.87;;;21.60;84.40;;;22.89;60.94;97802.22;5074778;28;20464;-76
2022/09/07 08:11:07;;;;;;;8.40;6.07;;;21.80;84.20;;;22.93;60.73;97797.75;5038443;28;20464;-79
2022/09/07 08:13:35;;;;;;;7.93;5.43;;;21.90;84.00;;;23.09;60.47;97793.91;5043688;28;21010;-74
2022/09/07 08:16:04;;;;;;;6.63;5.93;;;22.00;83.90;;;23.10;60.72;97793.59;5045086;28;20455;-80
2022/09/07 08:18:33;;;;;;;9.97;5.90;;;22.10;84.00;;;22.87;60.93;97790.69;5044402;28;20475;-81
2022/09/07 08:21:02;;;;;;;7.03;6.07;;;22.20;83.60;;;23.13;60.47;97787.50;5036189;28;21020;-80
2022/09/07 08:23:32;;;;;;;10.30;6.03;;;22.20;83.60;;;23.02;60.38;97791.53;5044928;28;21001;-78
2022/09/07 08:25:59;;;;;;;6.63;5.10;;;22.20;83.30;;;23.20;59.65;97803.59;5046727;28;20456;-78
2022/09/07 08:28:29;;;;;;;7.97;6.33;;;22.30;83.10;;;23.51;59.33;97819.59;5043589;28;20466;-77
2022/09/07 08:30:56;;;;;;;8.10;6.13;;;22.40;83.20;;;23.64;58.89;97817.97;5042148;28;21004;-77
2022/09/07 08:33:24;;;;;;;12.13;5.80;;;22.50;83.00;;;23.80;57.96;97829.47;5039482;28;20460;-77
2022/09/07 08:35:57;;;;;;;6.47;5.03;;;22.70;82.80;;;23.67;57.47;97795.28;5053221;28;21219;-79
2022/09/07 08:38:25;;;;;;;6.90;5.40;;;22.80;82.20;;;24.03;56.79;97837.88;5046679;28;20464;-75
2022/09/07 08:40:54;;;;;;;10.93;6.17;;;23.00;81.70;;;24.13;56.50;97839.59;5047299;28;20789;-75
2022/09/07 08:43:45;;;;;;;11.47;8.57;;;23.00;81.50;;;23.85;57.35;97842.34;5040008;28;20456;-78
2022/09/07 08:46:28;;;;;;;9.33;6.30;;;23.10;81.50;;;24.08;57.04;97837.75;5035716;28;20536;-79
2022/09/07 08:48:58;;;;;;;7.90;5.70;;;23.00;81.40;;;24.52;55.54;97829.91;5030849;28;20546;-78
2022/09/07 08:51:34;;;;;;;8.27;6.20;;;23.30;80.70;;;24.57;55.15;97832.53;5036816;28;20526;-78
2022/09/07 08:54:02;;;;;;;8.90;5.50;;;23.50;80.60;;;24.43;54.86;97798.63;5038568;28;20496;-76
2022/09/07 08:56:35;;;;;;;8.93;7.17;;;23.50;80.50;;;24.45;55.52;97840.53;5045374;28;20531;-81
2022/09/07 08:59:13;;;;;;;12.63;6.07;;;23.60;80.40;;;24.44;55.60;97839.75;5036524;28;20530;-79
2022/09/07 09:01:43;;;;;;;5.97;5.40;;;23.40;80.10;;;24.44;54.42;97834.22;5037534;28;20456;-79
2022/09/07 09:04:17;;;;;;;8.13;5.40;;;23.40;79.50;;;24.63;54.67;97838.75;5035790;28;20457;-77
2022/09/07 09:07:00;;;;;;;6.03;5.40;;;23.50;79.40;;;24.85;53.99;97834.38;5035985;28;21065;-79
2022/09/07 09:09:45;;;;;;;6.93;5.93;;;23.70;79.60;;;25.10;53.77;97832.94;5033617;28;20505;-76
2022/09/07 09:12:23;;;;;;;7.30;6.30;;;23.80;79.40;;;25.08;53.61;97821.34;5044176;28;20459;-73
2022/09/07 09:15:04;;;;;;;9.63;5.80;;;23.90;78.90;;;25.02;53.29;97819.88;5037152;28;20561;-75
2022/09/07 09:17:38;;;;;;;8.27;5.30;;;24.00;78.50;;;25.33;52.35;97832.88;5028366;28;20466;-78
2022/09/07 09:20:20;;;;;;;6.83;5.40;;;24.10;78.30;;;25.15;52.76;97830.03;5032124;28;20485;-77
2022/09/07 09:22:47;;;;;;;7.20;5.80;;;24.10;77.90;;;24.84;53.85;97821.69;5043085;28;20466;-73
2022/09/07 09:25:20;;;;;;;9.40;5.07;;;24.00;78.10;;;24.97;53.68;97820.81;5044947;28;20493;-77
2022/09/07 09:27:49;;;;;;;7.87;5.83;;;23.90;77.90;;;25.23;53.06;97819.31;5038013;28;20463;-77
2022/09/07 09:30:20;;;;;;;7.07;5.40;;;24.00;78.00;;;25.69;51.36;97820.84;5041495;28;20552;-78
2022/09/07 09:32:51;;;;;;;9.37;5.33;;;24.30;77.50;;;25.64;51.32;97807.16;5041082;28;21078;-77
2022/09/07 09:35:32;;;;;;;6.57;5.10;;;24.40;77.00;;;26.04;50.81;97809.06;5043489;28;20455;-78
2022/09/07 09:38:02;;;;;;;6.73;5.33;;;24.60;77.10;;;25.54;51.37;97807.44;5035872;28;20483;-77
2022/09/07 09:40:33;;;;;;;6.47;5.60;;;24.50;76.30;;;25.94;50.67;97801.88;5052967;28;20460;-78
2022/09/07 09:43:04;;;;;;;7.80;5.50;;;24.60;76.20;;;25.92;50.40;97806.94;5064015;28;20518;-79
2022/09/07 09:45:35;;;;;;;6.33;5.73;;;24.80;76.10;;;25.91;50.72;97805.28;5032640;28;20473;-79
2022/09/07 09:48:09;;;;;;;6.63;5.10;;;24.80;75.80;;;25.91;49.97;97771.25;5036761;28;20895;-81
2022/09/07 09:50:39;;;;;;;4.83;4.40;;;24.90;75.80;;;26.45;49.33;97798.69;5038224;28;20461;-79
2022/09/07 09:53:08;;;;;;;9.73;5.40;;;25.00;75.00;;;26.50;48.86;97803.25;5036569;28;20541;-79
2022/09/07 09:55:37;;;;;;;7.60;4.50;;;25.30;74.50;;;26.19;48.37;97757.16;5039425;28;20463;-79
2022/09/07 09:58:26;;;;;;;5.00;3.87;;;25.30;73.90;;;26.66;48.40;97796.06;5065722;28;20462;-79
2022/09/07 10:01:00;;;;;;;6.70;3.57;;;25.40;73.80;;;26.69;47.18;97797.38;5029864;28;20541;-75
2022/09/07 10:03:29;;;;;;;6.33;3.87;;;25.60;72.20;;;26.82;47.51;97799.16;5033354;28;20831;-77
2022/09/07 10:05:56;;;;;;;3.27;2.80;;;25.70;72.30;;;26.57;46.41;97801.63;5039416;28;20975;-76
2022/09/07 10:08:27;;;;;;;7.93;3.77;;;25.80;70.40;;;26.97;46.35;97802.59;5032836;28;20542;-79
2022/09/07 10:10:57;;;;;;;4.60;2.97;;;25.80;70.90;;;27.11;45.77;97797.66;5035514;28;20460;-79
2022/09/07 10:13:30;;;;;;;8.70;3.40;;;26.00;70.40;;;27.05;46.04;97790.66;5037614;28;20460;-78
2022/09/07 10:15:59;;;;;;;6.63;3.20;;;26.10;70.10;;;27.37;44.88;97791.22;5031680;28;20824;-79
2022/09/07 10:18:34;;;;;;;3.43;2.63;;;26.30;69.60;;;27.09;45.25;97788.88;5030596;28;20973;-78
2022/09/07 10:21:26;;;;;;;8.37;3.60;;;26.40;68.60;;;27.21;45.32;97782.63;5034952;28;20487;-79
2022/09/07 10:23:59;;;;;;;6.57;3.43;;;26.20;68.70;;;27.95;44.13;97782.44;5036465;28;20504;-78
2022/09/07 10:26:31;;;;;;;5.20;2.90;;;26.60;68.90;;;28.80;43.11;97771.34;5036751;28;20515;-79
2022/09/07 10:29:15;;;;;;;6.30;2.67;;;27.20;68.30;;;28.86;42.09;97779.44;5041996;28;20476;-79
2022/09/07 10:32:11;;;;;;;5.10;3.27;;;27.70;66.80;;;28.78;41.63;97759.72;5027590;28;20454;-74